Time;durP1;ratioP1;P1;durP2;ratioP2;P2;SDS_P1;SDS_P2;PMS_P1;PMS_P2;Temp;Humidity;BMP_temperature;BMP_pressure;BME280_temperature;BME280_humidity;BME280_pressure;Samples;Min_cycle;Max_cycle;Signal;HPM_P1;HPM_P2
2021/09/17 00:01:20;;;;;;;15.77;12.75;;;;;;;;;;5015355;28;20046;-68
2021/09/17 00:03:46;;;;;;;14.82;12.70;;;;;;;;;;5010352;28;20081;-68
2021/09/17 00:06:12;;;;;;;17.58;13.20;;;;;;;;;;5016980;28;20099;-68
2021/09/17 00:08:38;;;;;;;16.50;12.95;;;;;;;;;;5014900;28;20041;-68
2021/09/17 00:11:06;;;;;;;16.38;13.15;;;;;;;;;;5018634;28;20057;-68
2021/09/17 00:13:33;;;;;;;14.93;12.45;;;;;;;;;;5013415;28;20483;-68
2021/09/17 00:15:59;;;;;;;13.88;12.32;;;;;;;;;;5018768;28;20029;-68
2021/09/17 00:18:26;;;;;;;16.48;12.75;;;;;;;;;;5009210;28;20044;-68
2021/09/17 00:20:52;;;;;;;16.38;13.40;;;;;;;;;;5024813;28;20041;-68
2021/09/17 00:23:18;;;;;;;16.85;13.98;;;;;;;;;;5010123;28;20037;-68
2021/09/17 00:25:44;;;;;;;16.73;14.20;;;;;;;;;;5028523;28;20770;-68
2021/09/17 00:28:10;;;;;;;17.48;13.60;;;;;;;;;;5017351;28;20050;-68
2021/09/17 00:30:36;;;;;;;16.88;13.15;;;;;;;;;;5022671;28;20037;-68
2021/09/17 00:33:03;;;;;;;16.80;13.10;;;;;;;;;;5024100;28;20030;-68
2021/09/17 00:35:29;;;;;;;16.00;14.20;;;;;;;;;;5016400;28;20042;-68
2021/09/17 00:37:55;;;;;;;15.27;13.02;;;;;;;;;;5017722;28;20450;-68
2021/09/17 00:40:22;;;;;;;15.23;13.63;;;;;;;;;;5014671;28;20478;-68
2021/09/17 00:42:48;;;;;;;16.27;14.18;;;;;;;;;;5024418;28;20123;-67
2021/09/17 00:45:15;;;;;;;17.35;14.52;;;;;;;;;;5010953;28;20041;-67
2021/09/17 00:47:42;;;;;;;16.60;14.80;;;;;;;;;;5017853;28;20041;-67
2021/09/17 00:50:09;;;;;;;19.92;14.32;;;;;;;;;;5013752;28;20042;-67
2021/09/17 00:52:36;;;;;;;17.08;15.23;;;;;;;;;;5023999;28;20044;-69
2021/09/17 00:55:02;;;;;;;19.42;15.23;;;;;;;;;;5014180;28;20432;-68
2021/09/17 00:57:28;;;;;;;21.92;15.30;;;;;;;;;;5025325;28;20525;-68
2021/09/17 00:59:54;;;;;;;17.70;15.32;;;;;;;;;;5016865;28;20258;-68
2021/09/17 01:02:20;;;;;;;18.65;15.85;;;;;;;;;;5015697;28;20188;-68
2021/09/17 01:04:46;;;;;;;19.42;17.08;;;;;;;;;;5012803;28;20053;-69
2021/09/17 01:07:13;;;;;;;17.42;15.32;;;;;;;;;;5020269;28;20030;-68
2021/09/17 01:09:39;;;;;;;23.42;18.30;;;;;;;;;;5014076;28;20041;-68
2021/09/17 01:12:07;;;;;;;19.80;16.55;;;;;;;;;;5008340;28;20329;-68
2021/09/17 01:14:34;;;;;;;21.27;17.13;;;;;;;;;;5017296;28;20049;-68
2021/09/17 01:17:01;;;;;;;19.92;16.92;;;;;;;;;;5012032;28;20045;-68
2021/09/17 01:19:27;;;;;;;20.00;17.02;;;;;;;;;;5013638;28;20042;-68
2021/09/17 01:21:57;;;;;;;18.55;16.55;;;;;;;;;;5014958;28;20049;-68
2021/09/17 01:24:23;;;;;;;20.73;17.33;;;;;;;;;;5018255;28;20476;-69
2021/09/17 01:26:49;;;;;;;27.40;19.75;;;;;;;;;;5008005;28;20096;-68
2021/09/17 01:29:16;;;;;;;27.42;21.63;;;;;;;;;;5018356;28;20115;-68
2021/09/17 01:31:42;;;;;;;23.73;18.83;;;;;;;;;;5012829;28;20065;-68
2021/09/17 01:34:08;;;;;;;21.73;17.45;;;;;;;;;;5020462;28;20034;-68
2021/09/17 01:36:34;;;;;;;24.80;21.77;;;;;;;;;;5017961;28;20037;-68
2021/09/17 01:39:01;;;;;;;27.38;21.40;;;;;;;;;;5012319;28;20045;-68
2021/09/17 01:41:28;;;;;;;24.05;20.27;;;;;;;;;;5011939;28;20037;-68
2021/09/17 01:43:54;;;;;;;27.60;21.38;;;;;;;;;;5017979;28;20049;-68
2021/09/17 01:46:20;;;;;;;29.48;22.40;;;;;;;;;;5009776;28;20195;-68
2021/09/17 01:48:47;;;;;;;31.45;23.25;;;;;;;;;;5016927;28;20057;-68
2021/09/17 01:51:14;;;;;;;33.38;25.92;;;;;;;;;;5015288;28;20052;-68
2021/09/17 01:53:40;;;;;;;27.95;23.42;;;;;;;;;;5015727;28;20128;-68
2021/09/17 01:56:07;;;;;;;28.08;23.52;;;;;;;;;;5014833;28;20495;-68
2021/09/17 01:58:33;;;;;;;30.73;24.42;;;;;;;;;;5017532;28;20060;-68
2021/09/17 02:00:59;;;;;;;31.05;24.73;;;;;;;;;;5015827;28;20064;-67
2021/09/17 02:03:26;;;;;;;33.15;24.40;;;;;;;;;;4967813;28;1224736;-68
2021/09/17 02:05:52;;;;;;;30.10;24.05;;;;;;;;;;5018251;28;20057;-68
2021/09/17 02:08:18;;;;;;;32.70;26.10;;;;;;;;;;5009314;28;20053;-68
2021/09/17 02:10:44;;;;;;;29.45;24.63;;;;;;;;;;5025233;28;20127;-68
2021/09/17 02:13:12;;;;;;;35.58;26.98;;;;;;;;;;5019049;28;20049;-68
2021/09/17 02:15:38;;;;;;;34.30;26.15;;;;;;;;;;5017517;28;20042;-68
2021/09/17 02:18:04;;;;;;;35.10;27.58;;;;;;;;;;5010480;28;20053;-68
2021/09/17 02:20:30;;;;;;;33.78;27.35;;;;;;;;;;5012671;28;20099;-68
2021/09/17 02:22:56;;;;;;;35.95;26.80;;;;;;;;;;5010576;28;20038;-68
2021/09/17 02:25:23;;;;;;;35.50;25.50;;;;;;;;;;5003963;28;20196;-68
2021/09/17 02:27:49;;;;;;;31.38;24.23;;;;;;;;;;4998872;28;20050;-68
2021/09/17 02:30:15;;;;;;;28.25;24.02;;;;;;;;;;5025112;28;20482;-68
2021/09/17 02:32:41;;;;;;;36.63;27.08;;;;;;;;;;5016866;28;20183;-68
2021/09/17 02:35:08;;;;;;;33.35;27.80;;;;;;;;;;5014513;28;20505;-68
2021/09/17 02:37:35;;;;;;;32.83;27.10;;;;;;;;;;5014148;28;20124;-68
2021/09/17 02:40:01;;;;;;;34.50;27.38;;;;;;;;;;5010987;28;20041;-68
2021/09/17 02:42:27;;;;;;;42.22;29.80;;;;;;;;;;5025217;28;20044;-68
2021/09/17 02:44:53;;;;;;;37.15;28.98;;;;;;;;;;5016194;28;20037;-68
2021/09/17 02:47:21;;;;;;;43.20;30.33;;;;;;;;;;5016328;28;20034;-68
2021/09/17 02:49:47;;;;;;;38.15;28.33;;;;;;;;;;5012009;28;20049;-68
2021/09/17 02:52:13;;;;;;;37.25;28.75;;;;;;;;;;5013425;28;20084;-68
2021/09/17 02:54:39;;;;;;;38.85;29.90;;;;;;;;;;5013536;28;20037;-68
2021/09/17 02:57:05;;;;;;;34.40;27.83;;;;;;;;;;5014113;28;20132;-68
2021/09/17 02:59:31;;;;;;;43.17;30.70;;;;;;;;;;5013191;28;20069;-68
2021/09/17 03:01:57;;;;;;;49.08;32.78;;;;;;;;;;5017370;28;20488;-68
2021/09/17 03:04:24;;;;;;;35.38;28.10;;;;;;;;;;5007997;28;20458;-68
2021/09/17 03:06:50;;;;;;;37.10;27.83;;;;;;;;;;5013962;28;20045;-68
2021/09/17 03:09:16;;;;;;;38.67;29.50;;;;;;;;;;5019097;28;20068;-68
2021/09/17 03:11:42;;;;;;;38.90;30.50;;;;;;;;;;5014536;28;20068;-68
2021/09/17 03:14:08;;;;;;;41.47;28.92;;;;;;;;;;5022371;28;20072;-68
2021/09/17 03:16:34;;;;;;;35.53;28.05;;;;;;;;;;5008734;28;20124;-68
2021/09/17 03:19:01;;;;;;;38.15;28.98;;;;;;;;;;5017500;28;20046;-68
2021/09/17 03:21:27;;;;;;;39.17;29.52;;;;;;;;;;5015837;28;20609;-68
2021/09/17 03:23:53;;;;;;;42.85;31.75;;;;;;;;;;5017821;28;20052;-68
2021/09/17 03:26:19;;;;;;;37.35;28.75;;;;;;;;;;5010880;28;20046;-68
2021/09/17 03:28:45;;;;;;;40.05;31.25;;;;;;;;;;5013083;28;20144;-68
2021/09/17 03:31:11;;;;;;;41.90;32.47;;;;;;;;;;5011843;28;20048;-68
2021/09/17 03:33:37;;;;;;;40.90;30.92;;;;;;;;;;5022770;28;20034;-68
2021/09/17 03:36:04;;;;;;;37.83;29.50;;;;;;;;;;5015384;28;20073;-68
2021/09/17 03:38:31;;;;;;;36.75;29.48;;;;;;;;;;5014197;28;20041;-68
2021/09/17 03:40:57;;;;;;;40.47;31.20;;;;;;;;;;5013370;28;20049;-68
2021/09/17 03:43:23;;;;;;;44.45;32.13;;;;;;;;;;5016154;28;20045;-68
2021/09/17 03:45:49;;;;;;;57.30;36.88;;;;;;;;;;5017112;28;20413;-68
2021/09/17 03:48:15;;;;;;;49.60;33.65;;;;;;;;;;5015467;28;20479;-68
2021/09/17 03:50:42;;;;;;;47.22;31.73;;;;;;;;;;5015953;28;20501;-68
2021/09/17 03:53:08;;;;;;;39.03;29.60;;;;;;;;;;5013934;28;20824;-68
2021/09/17 03:55:35;;;;;;;42.35;31.45;;;;;;;;;;5020604;28;20388;-68
2021/09/17 03:58:01;;;;;;;39.90;31.50;;;;;;;;;;5014380;28;20041;-68
2021/09/17 04:00:27;;;;;;;39.95;29.63;;;;;;;;;;5019288;28;20576;-68
2021/09/17 04:02:53;;;;;;;35.85;29.80;;;;;;;;;;5011327;28;20111;-68
2021/09/17 04:05:20;;;;;;;41.83;32.47;;;;;;;;;;5011195;28;20114;-68
2021/09/17 04:07:46;;;;;;;38.70;29.90;;;;;;;;;;5013234;28;20038;-68
2021/09/17 04:10:13;;;;;;;45.40;33.03;;;;;;;;;;5016756;28;20064;-68
2021/09/17 04:12:40;;;;;;;35.35;28.98;;;;;;;;;;4988473;28;20054;-68
2021/09/17 04:15:06;;;;;;;44.53;32.42;;;;;;;;;;5010735;28;20037;-68
2021/09/17 04:17:32;;;;;;;37.38;29.55;;;;;;;;;;5014312;28;20025;-68
2021/09/17 04:19:59;;;;;;;34.95;30.00;;;;;;;;;;5014322;28;20382;-68
2021/09/17 04:22:25;;;;;;;41.13;32.13;;;;;;;;;;5007719;28;20049;-68
2021/09/17 04:24:53;;;;;;;35.97;29.33;;;;;;;;;;5006079;28;20053;-68
2021/09/17 04:27:21;;;;;;;42.80;32.08;;;;;;;;;;5015259;28;20041;-68
2021/09/17 04:29:48;;;;;;;36.33;30.08;;;;;;;;;;5019981;28;20516;-68
2021/09/17 04:32:14;;;;;;;40.40;30.95;;;;;;;;;;5015775;28;20029;-68
2021/09/17 04:34:41;;;;;;;42.17;31.00;;;;;;;;;;5014569;28;20045;-68
2021/09/17 04:37:07;;;;;;;39.35;30.65;;;;;;;;;;5020745;28;20043;-68
2021/09/17 04:39:33;;;;;;;61.13;35.78;;;;;;;;;;5006356;28;20064;-68
2021/09/17 04:41:59;;;;;;;103.43;35.85;;;;;;;;;;5016495;28;20038;-68
2021/09/17 04:44:25;;;;;;;135.30;37.90;;;;;;;;;;5006726;28;20053;-68
2021/09/17 04:46:51;;;;;;;43.22;33.60;;;;;;;;;;5019572;28;20125;-68
2021/09/17 04:49:18;;;;;;;179.18;39.22;;;;;;;;;;5011179;28;20034;-68
2021/09/17 04:51:44;;;;;;;172.48;41.83;;;;;;;;;;5021729;28;20524;-68
2021/09/17 04:54:12;;;;;;;78.47;35.60;;;;;;;;;;5011665;28;20512;-68
2021/09/17 04:56:39;;;;;;;62.45;37.78;;;;;;;;;;5018240;28;20453;-68
2021/09/17 04:59:05;;;;;;;70.78;37.53;;;;;;;;;;5011979;28;20072;-68
2021/09/17 05:01:32;;;;;;;244.05;41.97;;;;;;;;;;5019980;28;20038;-68
2021/09/17 05:03:58;;;;;;;47.63;35.83;;;;;;;;;;5011177;28;20137;-68
2021/09/17 05:06:24;;;;;;;169.00;48.83;;;;;;;;;;5017379;28;20057;-68
2021/09/17 05:08:50;;;;;;;43.92;34.80;;;;;;;;;;5023430;28;20048;-68
2021/09/17 05:11:16;;;;;;;87.85;39.92;;;;;;;;;;5014561;28;20053;-69
2021/09/17 05:13:42;;;;;;;56.08;37.33;;;;;;;;;;5018201;28;20465;-68
2021/09/17 05:16:09;;;;;;;65.57;36.55;;;;;;;;;;5016329;28;20422;-68
2021/09/17 05:18:35;;;;;;;63.53;39.17;;;;;;;;;;5018719;28;20132;-68
2021/09/17 05:21:01;;;;;;;46.15;33.55;;;;;;;;;;5012303;28;20480;-68
2021/09/17 05:23:27;;;;;;;43.55;34.20;;;;;;;;;;5011946;28;20391;-68
2021/09/17 05:25:53;;;;;;;44.00;33.97;;;;;;;;;;5013578;28;20517;-68
2021/09/17 05:28:19;;;;;;;51.17;36.17;;;;;;;;;;5020109;28;20088;-68
2021/09/17 05:30:46;;;;;;;52.17;34.97;;;;;;;;;;5014258;28;20099;-68
2021/09/17 05:33:12;;;;;;;45.58;34.28;;;;;;;;;;4999898;28;20264;-68
2021/09/17 05:35:38;;;;;;;51.20;34.00;;;;;;;;;;5017857;28;20542;-68
2021/09/17 05:38:04;;;;;;;59.50;35.88;;;;;;;;;;5023385;28;20132;-68
2021/09/17 05:40:30;;;;;;;61.17;35.33;;;;;;;;;;5017245;28;20042;-68
2021/09/17 05:42:56;;;;;;;48.97;33.30;;;;;;;;;;5018118;28;20050;-68
2021/09/17 05:45:23;;;;;;;43.38;32.70;;;;;;;;;;5015972;28;20074;-68
2021/09/17 05:47:49;;;;;;;40.80;31.35;;;;;;;;;;5018289;28;20437;-68
2021/09/17 05:50:18;;;;;;;55.38;34.95;;;;;;;;;;5017418;28;20133;-68
2021/09/17 05:52:44;;;;;;;51.25;33.60;;;;;;;;;;5012171;28;20037;-68
2021/09/17 05:55:11;;;;;;;45.85;32.10;;;;;;;;;;5021073;28;20052;-68
2021/09/17 05:57:37;;;;;;;39.15;30.02;;;;;;;;;;5013382;28;20244;-68
2021/09/17 06:00:04;;;;;;;47.15;33.00;;;;;;;;;;5003520;28;20049;-68
2021/09/17 06:02:30;;;;;;;41.70;31.30;;;;;;;;;;5011158;28;20445;-68
2021/09/17 06:04:56;;;;;;;39.22;30.60;;;;;;;;;;5018064;28;20080;-68
2021/09/17 06:07:23;;;;;;;38.47;30.23;;;;;;;;;;5014766;28;20054;-68
2021/09/17 06:09:49;;;;;;;50.55;34.30;;;;;;;;;;5016586;28;20055;-68
2021/09/17 06:12:15;;;;;;;50.38;32.67;;;;;;;;;;5014540;28;20103;-69
2021/09/17 06:14:41;;;;;;;47.28;32.17;;;;;;;;;;5018301;28;20037;-69
2021/09/17 06:17:07;;;;;;;46.15;32.70;;;;;;;;;;5007416;28;20050;-69
2021/09/17 06:19:33;;;;;;;38.78;30.02;;;;;;;;;;5012608;28;20068;-69
2021/09/17 06:22:00;;;;;;;39.92;32.35;;;;;;;;;;5012794;28;20042;-69
2021/09/17 06:24:26;;;;;;;39.72;31.75;;;;;;;;;;5018577;28;20037;-69
2021/09/17 06:26:52;;;;;;;41.38;33.28;;;;;;;;;;5011551;28;20037;-69
2021/09/17 06:29:18;;;;;;;43.88;31.35;;;;;;;;;;5012679;28;20041;-68
2021/09/17 06:31:44;;;;;;;34.08;28.40;;;;;;;;;;5004601;28;20133;-68
2021/09/17 06:34:11;;;;;;;35.45;29.50;;;;;;;;;;5016840;28;20077;-69
2021/09/17 06:36:37;;;;;;;31.02;27.10;;;;;;;;;;5019980;28;20037;-69
2021/09/17 06:39:03;;;;;;;29.95;26.67;;;;;;;;;;5008401;28;20049;-69
2021/09/17 06:41:30;;;;;;;30.65;27.45;;;;;;;;;;5015934;28;20050;-69
2021/09/17 06:43:56;;;;;;;26.90;24.35;;;;;;;;;;5018206;28;20085;-69
2021/09/17 06:46:23;;;;;;;26.27;23.45;;;;;;;;;;5019829;28;20112;-69
2021/09/17 06:48:49;;;;;;;25.75;23.35;;;;;;;;;;5015640;28;20068;-69
2021/09/17 06:51:15;;;;;;;26.52;23.83;;;;;;;;;;5014454;28;20046;-69
2021/09/17 06:53:41;;;;;;;26.60;23.85;;;;;;;;;;5010234;28;20194;-69
2021/09/17 06:56:09;;;;;;;26.23;23.58;;;;;;;;;;5016749;28;20452;-69
2021/09/17 06:58:36;;;;;;;24.33;21.95;;;;;;;;;;5012951;28;20479;-69
2021/09/17 07:01:03;;;;;;;26.23;23.70;;;;;;;;;;5020006;28;20037;-69
2021/09/17 07:03:29;;;;;;;26.52;23.85;;;;;;;;;;5010759;28;20481;-69
2021/09/17 07:05:56;;;;;;;26.30;23.60;;;;;;;;;;5015420;28;20042;-67
2021/09/17 07:08:22;;;;;;;23.33;21.17;;;;;;;;;;5013870;28;20045;-68
2021/09/17 07:10:49;;;;;;;24.17;21.85;;;;;;;;;;5015196;28;20136;-68
2021/09/17 07:13:15;;;;;;;24.08;21.88;;;;;;;;;;5015433;28;20049;-68
2021/09/17 07:15:42;;;;;;;22.30;20.20;;;;;;;;;;5012273;28;20036;-68
2021/09/17 07:18:08;;;;;;;23.50;21.35;;;;;;;;;;5018823;28;20041;-68
2021/09/17 07:20:35;;;;;;;22.17;20.17;;;;;;;;;;5012175;28;20041;-68
2021/09/17 07:23:03;;;;;;;21.85;19.70;;;;;;;;;;5016799;28;20037;-68
2021/09/17 07:25:29;;;;;;;21.13;19.15;;;;;;;;;;5017635;28;20121;-67
2021/09/17 07:27:56;;;;;;;24.33;21.85;;;;;;;;;;5014255;28;20053;-67
2021/09/17 07:30:22;;;;;;;22.58;20.45;;;;;;;;;;5009201;28;20092;-68
2021/09/17 07:32:48;;;;;;;21.92;19.75;;;;;;;;;;5015401;28;20111;-68
2021/09/17 07:35:15;;;;;;;23.63;21.27;;;;;;;;;;5007153;28;20037;-68
2021/09/17 07:37:41;;;;;;;21.63;19.63;;;;;;;;;;5013743;28;20231;-68
2021/09/17 07:40:10;;;;;;;24.17;21.77;;;;;;;;;;5012091;28;20125;-68
2021/09/17 07:42:37;;;;;;;23.48;21.30;;;;;;;;;;5013292;28;20401;-68
2021/09/17 07:45:03;;;;;;;23.38;21.08;;;;;;;;;;5008292;28;20254;-68
2021/09/17 07:47:30;;;;;;;24.13;21.73;;;;;;;;;;5017276;28;20113;-68
2021/09/17 07:49:56;;;;;;;23.70;21.48;;;;;;;;;;5016045;28;20057;-68
2021/09/17 07:52:22;;;;;;;24.83;22.45;;;;;;;;;;5016674;28;20113;-68
2021/09/17 07:54:48;;;;;;;24.02;21.73;;;;;;;;;;5008031;28;20418;-68
2021/09/17 07:57:14;;;;;;;24.75;22.45;;;;;;;;;;5018094;28;20038;-68
2021/09/17 07:59:41;;;;;;;24.23;21.83;;;;;;;;;;5021261;28;20565;-68
2021/09/17 08:02:07;;;;;;;24.77;22.38;;;;;;;;;;5007008;28;20463;-68
2021/09/17 08:04:37;;;;;;;24.25;21.67;;;;;;;;;;5001791;28;20133;-68
2021/09/17 08:07:04;;;;;;;25.63;22.92;;;;;;;;;;5008002;28;20052;-68
2021/09/17 08:09:30;;;;;;;26.65;23.90;;;;;;;;;;5012770;28;20033;-68
2021/09/17 08:11:56;;;;;;;25.35;22.80;;;;;;;;;;5003530;28;20053;-68
2021/09/17 08:14:22;;;;;;;24.80;22.40;;;;;;;;;;5014532;28;20038;-68
2021/09/17 08:16:49;;;;;;;26.38;23.60;;;;;;;;;;5009967;28;20057;-68
2021/09/17 08:19:15;;;;;;;25.92;23.35;;;;;;;;;;5021015;28;20050;-68
2021/09/17 08:21:43;;;;;;;26.00;23.50;;;;;;;;;;5009400;28;20080;-68
2021/09/17 08:24:14;;;;;;;25.95;23.35;;;;;;;;;;5014714;28;20050;-68
2021/09/17 08:26:41;;;;;;;25.08;22.60;;;;;;;;;;5015075;28;20045;-69
2021/09/17 08:29:07;;;;;;;26.33;23.70;;;;;;;;;;5027528;28;20050;-69
2021/09/17 08:31:33;;;;;;;25.27;22.67;;;;;;;;;;5016922;28;20096;-69
2021/09/17 08:33:59;;;;;;;25.23;22.65;;;;;;;;;;5015290;28;20513;-69
2021/09/17 08:36:26;;;;;;;24.35;21.73;;;;;;;;;;5015744;28;20049;-69
2021/09/17 08:38:52;;;;;;;26.83;24.20;;;;;;;;;;4995361;28;20459;-65
2021/09/17 08:41:18;;;;;;;26.02;23.52;;;;;;;;;;5019217;28;20455;-66
2021/09/17 08:43:44;;;;;;;24.88;22.45;;;;;;;;;;5016098;28;20453;-66
2021/09/17 08:46:14;;;;;;;25.33;22.70;;;;;;;;;;5019158;28;20045;-65
2021/09/17 08:48:41;;;;;;;25.77;23.05;;;;;;;;;;5011434;28;20133;-65
2021/09/17 08:51:07;;;;;;;25.55;22.40;;;;;;;;;;5019410;28;20548;-64
2021/09/17 08:53:33;;;;;;;26.25;22.90;;;;;;;;;;5013483;28;20124;-64
2021/09/17 08:56:00;;;;;;;24.98;22.05;;;;;;;;;;5026126;28;20576;-64
2021/09/17 08:58:26;;;;;;;25.05;22.65;;;;;;;;;;5016157;28;20084;-64
2021/09/17 09:00:52;;;;;;;25.05;22.45;;;;;;;;;;5023482;28;20406;-63
2021/09/17 09:03:32;;;;;;;24.20;21.90;;;;;;;;;;5014118;28;20148;-64
2021/09/17 09:06:14;;;;;;;24.95;22.40;;;;;;;;;;5015943;28;20057;-63
2021/09/17 09:08:41;;;;;;;23.70;21.33;;;;;;;;;;5012613;28;20040;-64
2021/09/17 09:11:21;;;;;;;23.85;21.67;;;;;;;;;;5023923;28;20052;-63
2021/09/17 09:14:07;;;;;;;24.65;22.25;;;;;;;;;;5018934;28;20056;-64
2021/09/17 09:16:35;;;;;;;25.63;23.20;;;;;;;;;;5016503;28;20045;-64
2021/09/17 09:19:16;;;;;;;24.13;21.75;;;;;;;;;;5011784;28;20497;-65
2021/09/17 09:21:42;;;;;;;24.58;21.08;;;;;;;;;;5018808;28;20383;-64
2021/09/17 09:24:12;;;;;;;24.75;22.25;;;;;;;;;;5010582;28;20100;-64
2021/09/17 09:26:39;;;;;;;24.23;21.63;;;;;;;;;;5016150;28;20065;-64
2021/09/17 09:29:05;;;;;;;24.67;21.48;;;;;;;;;;5013089;28;20042;-65
2021/09/17 09:31:39;;;;;;;23.17;20.73;;;;;;;;;;5023656;28;20041;-64
2021/09/17 09:34:05;;;;;;;24.48;21.95;;;;;;;;;;5021117;28;20041;-65
2021/09/17 09:36:35;;;;;;;22.80;19.50;;;;;;;;;;5009868;28;20490;-65
2021/09/17 09:39:02;;;;;;;22.58;19.88;;;;;;;;;;5016202;28;20042;-65
2021/09/17 09:41:29;;;;;;;22.35;20.17;;;;;;;;;;5011750;28;20049;-65
2021/09/17 09:43:58;;;;;;;23.38;20.92;;;;;;;;;;5017409;28;20042;-65
2021/09/17 09:46:45;;;;;;;22.00;19.70;;;;;;;;;;5019191;28;20041;-65
2021/09/17 09:49:26;;;;;;;24.40;21.90;;;;;;;;;;5016829;28;20077;-65
2021/09/17 09:52:12;;;;;;;22.25;19.95;;;;;;;;;;5010745;28;20053;-65
2021/09/17 09:54:39;;;;;;;22.10;19.88;;;;;;;;;;5016847;28;20064;-65
2021/09/17 09:57:05;;;;;;;21.75;19.45;;;;;;;;;;5010787;28;20064;-65
2021/09/17 09:59:33;;;;;;;22.77;20.50;;;;;;;;;;5028353;28;20041;-65
2021/09/17 10:02:00;;;;;;;23.70;21.25;;;;;;;;;;5010549;28;20054;-65
2021/09/17 10:04:27;;;;;;;21.98;19.77;;;;;;;;;;5018132;28;20056;-65
2021/09/17 10:07:11;;;;;;;24.17;21.83;;;;;;;;;;5007242;28;20034;-65
2021/09/17 10:09:40;;;;;;;22.20;20.20;;;;;;;;;;5014291;28;20038;-65
2021/09/17 10:12:07;;;;;;;21.55;19.20;;;;;;;;;;5008958;28;20508;-65
2021/09/17 10:14:34;;;;;;;21.05;17.92;;;;;;;;;;5018926;28;20074;-65
2021/09/17 10:17:03;;;;;;;20.98;17.95;;;;;;;;;;5007152;28;20038;-65
2021/09/17 10:19:29;;;;;;;19.15;17.20;;;;;;;;;;5017033;28;20041;-65
2021/09/17 10:21:56;;;;;;;18.48;16.67;;;;;;;;;;5012466;28;20140;-65
2021/09/17 10:24:29;;;;;;;18.05;16.25;;;;;;;;;;5016228;28;20083;-65
2021/09/17 10:27:00;;;;;;;15.90;14.20;;;;;;;;;;5020759;28;20045;-65
2021/09/17 10:29:31;;;;;;;16.30;14.50;;;;;;;;;;5014424;28;20046;-65
2021/09/17 10:32:00;;;;;;;16.30;14.82;;;;;;;;;;5009745;28;20061;-65
2021/09/17 10:34:47;;;;;;;19.42;16.20;;;;;;;;;;5015180;28;20452;-65
2021/09/17 10:37:13;;;;;;;14.82;13.43;;;;;;;;;;5018938;28;20046;-65
2021/09/17 10:39:40;;;;;;;18.45;16.77;;;;;;;;;;5014714;28;20038;-65
2021/09/17 10:42:12;;;;;;;16.67;15.07;;;;;;;;;;5013406;28;20038;-65
2021/09/17 10:44:57;;;;;;;18.27;15.15;;;;;;;;;;5024842;28;20041;-66
2021/09/17 10:47:23;;;;;;;;;;;;;;;;;;5012844;28;20038;-65
2021/09/17 10:50:05;;;;;;;15.00;13.40;;;;;;;;;;5016583;28;19925;-65
2021/09/17 10:52:38;;;;;;;14.45;12.95;;;;;;;;;;5014608;28;20106;-65
2021/09/17 10:55:05;;;;;;;14.43;13.10;;;;;;;;;;5015098;28;20041;-65
2021/09/17 10:57:31;;;;;;;14.63;12.82;;;;;;;;;;5009118;28;20105;-65
2021/09/17 10:59:59;;;;;;;13.73;12.43;;;;;;;;;;5024592;28;20041;-65
2021/09/17 11:02:51;;;;;;;14.70;13.40;;;;;;;;;;5025035;28;20382;-65
2021/09/17 11:05:18;;;;;;;13.85;12.45;;;;;;;;;;5014322;28;20086;-65
2021/09/17 11:07:44;;;;;;;14.93;13.30;;;;;;;;;;5015026;28;20038;-65
2021/09/17 11:10:33;;;;;;;15.75;14.18;;;;;;;;;;5008559;28;20046;-65
2021/09/17 11:13:09;;;;;;;14.10;12.60;;;;;;;;;;5025112;28;20049;-65
2021/09/17 11:15:35;;;;;;;15.20;13.63;;;;;;;;;;5016283;28;20038;-65
2021/09/17 11:18:08;;;;;;;16.25;13.57;;;;;;;;;;5015088;28;20628;-65
2021/09/17 11:20:34;;;;;;;14.95;13.55;;;;;;;;;;5009371;28;20046;-65
2021/09/17 11:23:01;;;;;;;15.30;13.88;;;;;;;;;;5015169;28;20038;-65
2021/09/17 11:25:30;;;;;;;14.95;13.55;;;;;;;;;;5008996;28;20049;-65
2021/09/17 11:27:57;;;;;;;14.82;12.63;;;;;;;;;;5012749;28;20034;-65
2021/09/17 11:30:24;;;;;;;15.02;13.52;;;;;;;;;;5009269;28;20447;-65
2021/09/17 11:32:50;;;;;;;13.48;12.25;;;;;;;;;;5014728;28;20042;-65
2021/09/17 11:35:17;;;;;;;13.75;12.55;;;;;;;;;;5010588;28;20461;-65
2021/09/17 11:37:50;;;;;;;13.07;11.90;;;;;;;;;;5013642;28;20636;-65
2021/09/17 11:40:16;;;;;;;14.00;12.60;;;;;;;;;;5012778;28;20053;-65
2021/09/17 11:42:43;;;;;;;14.48;12.98;;;;;;;;;;5016884;28;20096;-65
2021/09/17 11:45:14;;;;;;;13.60;12.40;;;;;;;;;;5009002;28;20064;-65
2021/09/17 11:47:44;;;;;;;15.57;12.55;;;;;;;;;;5013052;28;20038;-69
2021/09/17 11:50:15;;;;;;;14.05;12.57;;;;;;;;;;5017730;28;20041;-70
2021/09/17 11:52:46;;;;;;;15.57;11.68;;;;;;;;;;5014063;28;20042;-70
2021/09/17 11:55:13;;;;;;;14.02;12.68;;;;;;;;;;5007584;28;20063;-70
2021/09/17 11:57:41;;;;;;;12.85;11.70;;;;;;;;;;5012469;28;20123;-70
2021/09/17 12:00:11;;;;;;;12.55;11.30;;;;;;;;;;5013088;28;20046;-71
2021/09/17 12:02:38;;;;;;;12.73;11.40;;;;;;;;;;5020144;28;20034;-70
2021/09/17 12:05:15;;;;;;;13.00;11.52;;;;;;;;;;5012574;28;20150;-70
2021/09/17 12:07:42;;;;;;;68.93;62.05;;;;;;;;;;5016260;28;20069;-70
2021/09/17 12:10:15;;;;;;;14.45;12.68;;;;;;;;;;5016641;28;20258;-70
2021/09/17 12:12:42;;;;;;;11.80;10.00;;;;;;;;;;5016605;28;20494;-70
2021/09/17 12:15:09;;;;;;;11.68;10.57;;;;;;;;;;5014324;28;20053;-70
2021/09/17 12:17:50;;;;;;;12.48;10.85;;;;;;;;;;5017054;28;20057;-70
2021/09/17 12:20:17;;;;;;;13.85;11.57;;;;;;;;;;5026908;28;20058;-70
2021/09/17 12:22:44;;;;;;;11.18;10.18;;;;;;;;;;5017217;28;20115;-70
2021/09/17 12:25:10;;;;;;;11.60;10.68;;;;;;;;;;5029009;28;20409;-70
2021/09/17 12:27:41;;;;;;;9.68;8.77;;;;;;;;;;5015524;28;20041;-70
2021/09/17 12:30:09;;;;;;;10.23;7.93;;;;;;;;;;5022872;28;20053;-70
2021/09/17 12:32:35;;;;;;;11.45;8.05;;;;;;;;;;5015086;28;20079;-70
2021/09/17 12:35:04;;;;;;;9.70;8.75;;;;;;;;;;5015920;28;20130;-70
2021/09/17 12:37:31;;;;;;;8.50;7.70;;;;;;;;;;5011921;28;20072;-70
2021/09/17 12:40:10;;;;;;;10.05;8.38;;;;;;;;;;5013581;28;20056;-70
2021/09/17 12:42:36;;;;;;;9.43;7.93;;;;;;;;;;5013689;28;20108;-70
2021/09/17 12:45:03;;;;;;;8.70;7.88;;;;;;;;;;5024307;28;20038;-70
2021/09/17 12:47:29;;;;;;;9.88;8.32;;;;;;;;;;5015728;28;20072;-70
2021/09/17 12:50:06;;;;;;;9.35;8.32;;;;;;;;;;5001173;28;20136;-70
2021/09/17 12:52:33;;;;;;;9.80;8.15;;;;;;;;;;5011402;28;20053;-70
2021/09/17 12:54:59;;;;;;;8.40;7.50;;;;;;;;;;5023861;28;20121;-70
2021/09/17 12:57:26;;;;;;;10.38;9.23;;;;;;;;;;5012681;28;20045;-71
2021/09/17 12:59:58;;;;;;;8.65;7.80;;;;;;;;;;5020399;28;20085;-71
2021/09/17 13:02:25;;;;;;;8.27;6.35;;;;;;;;;;5009773;28;20041;-67
2021/09/17 13:05:01;;;;;;;6.90;6.28;;;;;;;;;;5020901;28;20061;-67
2021/09/17 13:07:27;;;;;;;7.82;6.80;;;;;;;;;;5014867;28;20053;-67
2021/09/17 13:09:53;;;;;;;7.35;6.63;;;;;;;;;;5021476;28;20129;-67
2021/09/17 13:12:19;;;;;;;7.80;5.80;;;;;;;;;;5016088;28;20064;-67
2021/09/17 13:14:45;;;;;;;6.28;5.63;;;;;;;;;;5016412;28;20410;-67
2021/09/17 13:17:12;;;;;;;6.65;5.68;;;;;;;;;;5015170;28;20073;-67
2021/09/17 13:19:38;;;;;;;7.25;5.70;;;;;;;;;;5017161;28;20053;-67
2021/09/17 13:22:04;;;;;;;6.95;5.35;;;;;;;;;;5024942;28;20053;-67
2021/09/17 13:24:30;;;;;;;5.88;5.22;;;;;;;;;;5019037;28;20041;-66
2021/09/17 13:26:56;;;;;;;5.78;5.18;;;;;;;;;;5019696;28;20049;-66
2021/09/17 13:29:23;;;;;;;7.82;5.43;;;;;;;;;;5011482;28;20116;-66
2021/09/17 13:31:49;;;;;;;8.77;7.90;;;;;;;;;;5012721;28;20052;-66
2021/09/17 13:34:15;;;;;;;8.82;7.90;;;;;;;;;;5015624;28;20037;-66
2021/09/17 13:36:41;;;;;;;9.55;8.63;;;;;;;;;;5023580;28;20038;-66
2021/09/17 13:39:07;;;;;;;10.60;9.63;;;;;;;;;;5011066;28;20037;-66
2021/09/17 13:41:33;;;;;;;10.30;9.32;;;;;;;;;;5017556;28;20099;-66
2021/09/17 13:44:00;;;;;;;11.65;10.45;;;;;;;;;;5011835;28;20440;-66
2021/09/17 13:46:26;;;;;;;11.43;10.32;;;;;;;;;;5024967;28;20055;-66
2021/09/17 13:48:52;;;;;;;10.93;9.93;;;;;;;;;;5013181;28;20107;-66
2021/09/17 13:51:18;;;;;;;12.48;11.30;;;;;;;;;;5010377;28;20198;-66
2021/09/17 13:53:45;;;;;;;12.35;11.10;;;;;;;;;;5016894;28;20045;-66
2021/09/17 13:56:11;;;;;;;11.45;10.32;;;;;;;;;;5012730;28;20048;-66
2021/09/17 13:58:37;;;;;;;10.48;9.48;;;;;;;;;;5026200;28;20038;-66
2021/09/17 14:01:03;;;;;;;11.90;10.88;;;;;;;;;;5010873;28;20140;-66
2021/09/17 14:03:29;;;;;;;11.88;10.63;;;;;;;;;;5018988;28;20139;-66
2021/09/17 14:05:56;;;;;;;13.00;11.60;;;;;;;;;;5010732;28;20045;-66
2021/09/17 14:08:22;;;;;;;11.18;10.07;;;;;;;;;;5014159;28;20076;-66
2021/09/17 14:10:49;;;;;;;12.68;11.38;;;;;;;;;;5013361;28;20057;-66
2021/09/17 14:13:15;;;;;;;12.60;11.35;;;;;;;;;;5015751;28;20037;-66
2021/09/17 14:15:41;;;;;;;11.60;10.40;;;;;;;;;;4991715;28;20077;-66
2021/09/17 14:18:07;;;;;;;11.32;10.25;;;;;;;;;;5016048;28;20466;-66
2021/09/17 14:20:33;;;;;;;11.23;10.10;;;;;;;;;;5012303;28;20068;-66